Flight Track Log - Related Links

Times and Time Zones

All times are in EDT time to prevent confusion due to time zone crossing. See the N21315 flight status page for this flight to view local times or setup timezone preferences in your user account.

Time Position Orientation Groundspeed Altitude Reporting Facility
EDT Latitude Longitude Course Direction KTS MPH feet Rate Location/Type
Thu 07:23:12 PM 41.4717 -82.7919 107° East 78 90 2,500  Level Cleveland Center
Thu 07:23:48 PM 41.4678 -82.7750 107° East 81 93 2,600 309 Climbing Cleveland Center
Thu 07:24:49 PM 41.4642 -82.7444 99° East 83 96 3,000 373 Climbing Cleveland Center
Thu 07:26:00 PM 41.4349 -82.7706 214° Southwest  Level FlightAware Approximate
Thu 07:26:45 PM 41.4353 -82.7381 214° Southwest 57 66 3,700  Level Cleveland Center
Thu 07:27:45 PM 41.4186 -82.7319 165° South 55 63 4,000 261 Climbing Cleveland Center
Thu 07:28:40 PM 41.4019 -82.7258 165° South 66 76 4,200 295 Climbing Cleveland Center
Thu 07:29:47 PM 41.3833 -82.7197 166° South 64 74 4,600 328 Climbing Cleveland Center
Thu 07:30:48 PM 41.3667 -82.7164 171° South 64 74 4,900 295 Climbing Cleveland Center
Thu 07:31:49 PM 41.3500 -82.7242 199° South 67 77 5,200 287 Climbing Cleveland Center
Thu 07:33:00 PM 41.3203 -82.7494 213° Southwest  Level FlightAware Approximate
Thu 07:39:52 PM 41.2289 -82.8361 220° Southwest 126 145 7,500  Level Cleveland Center
Thu 07:40:00 PM 41.1500 -82.9089 161° South  Level Estimated
Thu 07:40:52 PM 41.2142 -82.8522 219° Southwest 94 108 7,700  Level Cleveland Center
Thu 07:41:00 PM 41.1314 -82.8780 129° Southeast  Level FlightAware Approximate
Thu 07:41:52 PM 41.1950 -82.8681 212° Southwest 77 89 8,100  Level Cleveland Center
Thu 07:42:00 PM 41.1128 -82.8472 129° Southeast  Level FlightAware Approximate
Thu 07:42:52 PM 41.1800 -82.8814 214° Southwest 72 83 8,600  Level Cleveland Center
Thu 07:43:00 PM 41.0942 -82.8164 129° Southeast  Level FlightAware Approximate
Thu 07:43:52 PM 41.1653 -82.8972 219° Southwest 72 83 8,900  Level Cleveland Center
Thu 07:44:00 PM 41.0756 -82.7856 129° Southeast  Level FlightAware Approximate
Thu 07:44:52 PM 41.1483 -82.9133 216° Southwest 72 83 9,100  Level Cleveland Center
Thu 07:45:00 PM 41.0527 -82.8109 220° Southwest  Level FlightAware Approximate
Thu 07:45:52 PM 41.1289 -82.9347 220° Southwest 84 97 9,200  Level Cleveland Center
Thu 07:46:52 PM 41.1078 -82.9558 217° Southwest 94 108 9,300  Climbing Cleveland Center
Thu 07:47:52 PM 41.0864 -82.9800 220° Southwest 100 115 9,200 -50 Descending Cleveland Center
Thu 07:48:52 PM 41.0608 -83.0011 212° Southwest 105 121 9,200 -100 Level Cleveland Center
Thu 07:49:52 PM 41.0375 -83.0194 211° Southwest 105 121 9,000 -50 Descending Cleveland Center
Thu 07:50:52 PM 41.0142 -83.0406 214° Southwest 105 121 9,100 50 Climbing Cleveland Center
Thu 07:51:52 PM 40.9950 -83.0564 212° Southwest 105 121 9,100 -50 Level Cleveland Center
Thu 07:52:52 PM 40.9717 -83.0803 218° Southwest 105 121 9,000  Descending Cleveland Center
Thu 07:53:52 PM 40.9503 -83.1014 217° Southwest 105 121 9,100 100 Climbing Cleveland Center
Thu 07:54:52 PM 40.9289 -83.1225 217° Southwest 105 121 9,200 50 Climbing Cleveland Center
Thu 07:55:52 PM 40.9056 -83.1436 214° Southwest 105 121 9,200  Level Cleveland Center
Thu 07:56:52 PM 40.8842 -83.1703 223° Southwest 105 121 9,200  Level Cleveland Center
Thu 07:57:29 PM 40.8647 -83.1772 195° South 104 120 9,200  Level Indianapolis Center
Thu 07:58:31 PM 40.8406 -83.1969 212° Southwest 103 119 9,200 -48 Level Indianapolis Center
Thu 07:59:33 PM 40.8181 -83.2169 214° Southwest 100 115 9,100  Descending Indianapolis Center
Thu 08:00:34 PM 40.7958 -83.2378 215° Southwest 98 113 9,200 49 Climbing Indianapolis Center
Thu 08:01:36 PM 40.7711 -83.2561 209° Southwest 101 116 9,200 -49 Level Indianapolis Center
Thu 08:02:37 PM 40.7486 -83.2764 214° Southwest 99 114 9,100  Descending Indianapolis Center
Thu 08:03:39 PM 40.7261 -83.2972 215° Southwest 98 113 9,200 48 Climbing Indianapolis Center
Thu 08:04:41 PM 40.6994 -83.3211 214° Southwest 98 113 9,200  Level Indianapolis Center
Thu 08:05:42 PM 40.6739 -83.3414 211° Southwest 103 119 9,200  Level Indianapolis Center
Thu 08:06:44 PM 40.6511 -83.3633 216° Southwest 102 117 9,200  Level Indianapolis Center
Thu 08:07:45 PM 40.6275 -83.3836 213° Southwest 101 116 9,200  Level Indianapolis Center
Thu 08:08:47 PM 40.6039 -83.4078 218° Southwest 104 120 9,200 -48 Level Indianapolis Center
Thu 08:09:49 PM 40.5800 -83.4278 212° Southwest 103 119 9,100 -98 Descending Indianapolis Center
Thu 08:10:50 PM 40.5556 -83.4528 218° Southwest 107 123 9,000 -49 Descending Indianapolis Center
Thu 08:11:52 PM 40.5331 -83.4758 218° Southwest 103 119 9,000  Level Indianapolis Center
Thu 08:12:07 PM 40.5236 -83.4858 219° Southwest 106 122 9,000  Level Indianapolis Center
Thu 08:12:53 PM 40.5092 -83.4978 212° Southwest 104 120 9,000  Level Indianapolis Center
Thu 08:13:08 PM 40.4989 -83.5075 216° Southwest 104 120 9,000  Level Indianapolis Center
Thu 08:13:55 PM 40.4856 -83.5208 217° Southwest 105 121 9,000  Level Indianapolis Center
Thu 08:14:56 PM 40.4625 -83.5436 217° Southwest 103 119 9,000  Level Indianapolis Center
Thu 08:15:58 PM 40.4367 -83.5697 218° Southwest 102 117 9,000  Level Indianapolis Center
Thu 08:16:59 PM 40.4142 -83.5939 219° Southwest 103 119 9,000 -49 Level Indianapolis Center
Thu 08:18:01 PM 40.3925 -83.6164 218° Southwest 100 115 8,900 -195 Descending Indianapolis Center
Thu 08:19:02 PM 40.3711 -83.6431 224° Southwest 104 120 8,600 -341 Descending Indianapolis Center
Thu 08:20:04 PM 40.3478 -83.6689 220° Southwest 108 124 8,200 -439 Descending Indianapolis Center
Thu 08:21:05 PM 40.3228 -83.6919 215° Southwest 108 124 7,700 -488 Descending Indianapolis Center
Thu 08:22:07 PM 40.2986 -83.7136 214° Southwest 106 122 7,200 -439 Descending Indianapolis Center
Thu 08:23:08 PM 40.2739 -83.7347 213° Southwest 105 121 6,800 -344 Descending Indianapolis Center
Thu 08:24:09 PM 40.2500 -83.7553 213° Southwest 104 120 6,500 -341 Descending Indianapolis Center
Thu 08:25:11 PM 40.2247 -83.7758 212° Southwest 104 120 6,100 -242 Descending Indianapolis Center
Thu 08:26:13 PM 40.1989 -83.7983 214° Southwest 95 109 6,000  Descending Indianapolis Center
Thu 08:27:14 PM 40.1764 -83.8167 212° Southwest 97 112 6,100  Climbing Indianapolis Center
Thu 08:28:15 PM 40.1539 -83.8364 214° Southwest 96 110 6,000  Descending Indianapolis Center
Thu 08:29:16 PM 40.1314 -83.8561 214° Southwest 96 110 6,100 50 Climbing Indianapolis Center
Thu 08:30:16 PM 40.1072 -83.8767 213° Southwest 95 109 6,100  Level Indianapolis Center
Thu 08:31:17 PM 40.0850 -83.8928 209° Southwest 95 109 6,100  Level Indianapolis Center
Thu 08:32:18 PM 40.0625 -83.9117 213° Southwest 92 106 6,100  Level Indianapolis Center
Thu 08:33:19 PM 40.0406 -83.9281 210° Southwest 96 110 6,100  Level Indianapolis Center
Thu 08:34:19 PM 40.0181 -83.9469 213° Southwest 96 110 6,100 -50 Level Indianapolis Center
Thu 08:35:20 PM 39.9933 -83.9681 213° Southwest 95 109 6,000  Descending Indianapolis Center
Thu 08:36:21 PM 39.9708 -83.9869 213° Southwest 95 109 6,100 49 Climbing Indianapolis Center
Thu 08:37:22 PM 39.9486 -84.0058 213° Southwest 96 110 6,100  Level Indianapolis Center
Thu 08:38:23 PM 39.9261 -84.0247 213° Southwest 95 109 6,100  Level Indianapolis Center
Thu 08:39:23 PM 39.9039 -84.0408 209° Southwest 94 108 6,100  Level Indianapolis Center
Thu 08:40:24 PM 39.8817 -84.0597 213° Southwest 96 110 6,100  Level Indianapolis Center
Thu 08:41:25 PM 39.8592 -84.0786 213° Southwest 97 112 6,100  Level Indianapolis Center
Thu 08:42:34 PM 39.8339 -84.0992 212° Southwest 96 110 6,100  Level Indianapolis Center
Thu 08:43:36 PM 39.8108 -84.1175 211° Southwest 96 110 6,100  Level Indianapolis Center
Thu 08:44:37 PM 39.7881 -84.1356 211° Southwest 95 109 6,100  Level Indianapolis Center
Thu 08:45:38 PM 39.7658 -84.1561 215° Southwest 97 112 6,100  Level Indianapolis Center
Thu 08:46:40 PM 39.7436 -84.1764 215° Southwest 97 112 6,100 -146 Level Indianapolis Center
Thu 08:47:41 PM 39.7228 -84.1961 216° Southwest 95 109 5,800 -295 Descending Indianapolis Center
Thu 08:48:42 PM 39.7008 -84.2158 215° Southwest 94 108 5,500 -341 Descending Indianapolis Center
Thu 08:49:44 PM 39.6767 -84.2339 210° Southwest 96 110 5,100 -390 Descending Indianapolis Center
Thu 08:50:45 PM 39.6536 -84.2542 214° Southwest 98 113 4,700 -443 Descending Indianapolis Center
Thu 08:51:46 PM 39.6317 -84.2742 215° Southwest 98 113 4,200 -344 Descending Indianapolis Center
Thu 08:52:47 PM 39.6089 -84.2944 214° Southwest 98 113 4,000 -49 Descending Indianapolis Center
Thu 08:53:49 PM 39.5811 -84.3114 205° Southwest 95 109 4,100 49 Climbing Indianapolis Center
Thu 08:54:50 PM 39.5569 -84.3225 200° South 92 106 4,100  Level Indianapolis Center
Thu 08:55:51 PM 39.5317 -84.3344 200° South 93 107 4,100  Level Indianapolis Center
Thu 08:56:52 PM 39.5064 -84.3453 198° South 94 108 4,100 -49 Level Indianapolis Center
Thu 08:57:53 PM 39.4811 -84.3583 202° Southwest 96 110 4,000 -293 Descending Indianapolis Center
Thu 08:58:55 PM 39.4556 -84.3722 203° Southwest 97 112 3,500 -390 Descending Indianapolis Center
Thu 08:59:56 PM 39.4319 -84.3864 205° Southwest 98 113 3,200 -295 Descending Indianapolis Center
Thu 09:01:00 PM 39.4164 -84.4174 218° Southwest  Level Estimated
Thu 09:08:00 PM 39.3500 -84.5167 207° Southwest  Level FlightAware Approximate
Thu 09:09:00 PM 39.3638 -84.5219 207° Southwest  Level Estimated
Thu 09:10:00 PM 39.3638 -84.5219 207° Southwest  Level Estimated

Login

Don't have an account? Register now (free) for customized features, flight alerts, and more!